createdAt,value
2023-01-15T00:00:09.102Z,99868.91
2023-01-15T00:02:38.348Z,99852.19
2023-01-15T00:05:08.937Z,99851.00
2023-01-15T00:07:39.396Z,99847.06
2023-01-15T00:10:10.099Z,99842.66
2023-01-15T00:12:39.225Z,99842.50
2023-01-15T00:15:09.328Z,99824.38
2023-01-15T00:17:38.409Z,99821.09
2023-01-15T00:20:08.367Z,99833.84
2023-01-15T00:22:39.112Z,99818.72
2023-01-15T00:25:26.256Z,99809.31
2023-01-15T00:27:55.329Z,99819.03
2023-01-15T00:30:24.980Z,99813.16
2023-01-15T00:32:54.309Z,99800.97
2023-01-15T00:35:25.706Z,99805.94
2023-01-15T00:37:56.127Z,99799.13
2023-01-15T00:40:24.937Z,99791.47
2023-01-15T00:42:54.727Z,99800.31
2023-01-15T00:45:24.271Z,99787.00
2023-01-15T00:47:53.847Z,99790.13
2023-01-15T00:50:22.987Z,99795.22
2023-01-15T00:52:51.792Z,99782.97
2023-01-15T00:55:23.938Z,99778.09
2023-01-15T00:57:52.804Z,99770.09
2023-01-15T01:00:22.310Z,99777.81
2023-01-15T01:02:51.164Z,99764.53
2023-01-15T01:05:20.396Z,99761.19
2023-01-15T01:07:49.233Z,99753.59
2023-01-15T01:10:18.842Z,99759.16
2023-01-15T01:12:51.880Z,99771.25
2023-01-15T01:15:22.359Z,99763.94
2023-01-15T01:17:51.489Z,99769.97
2023-01-15T01:20:20.870Z,99750.56
2023-01-15T01:22:50.897Z,99751.78
2023-01-15T01:25:20.499Z,99756.78
2023-01-15T01:27:51.069Z,99740.97
2023-01-15T01:30:20.438Z,99757.97
2023-01-15T01:32:49.235Z,99743.78
2023-01-15T01:35:18.567Z,99754.44
2023-01-15T01:37:51.804Z,99744.44
2023-01-15T01:40:21.724Z,99745.94
2023-01-15T01:42:52.812Z,99732.31
2023-01-15T01:45:26.916Z,99732.00
2023-01-15T01:48:01.853Z,99726.06
2023-01-15T01:50:33.774Z,99710.06
2023-01-15T01:53:09.485Z,99716.94
2023-01-15T01:55:39.533Z,99698.53
2023-01-15T01:58:13.320Z,99685.34
2023-01-15T02:00:49.361Z,99674.50
2023-01-15T02:03:22.644Z,99685.34
2023-01-15T02:05:59.558Z,99687.16
2023-01-15T02:08:32.472Z,99676.69
2023-01-15T02:11:02.779Z,99693.47
2023-01-15T02:13:41.751Z,99680.00
2023-01-15T02:16:21.789Z,99695.41
2023-01-15T02:18:59.921Z,99681.78
2023-01-15T02:21:51.137Z,99688.69
2023-01-15T02:24:33.083Z,99689.75
2023-01-15T02:27:13.307Z,99678.44
2023-01-15T02:29:54.068Z,99687.38
2023-01-15T02:32:36.615Z,99683.78
2023-01-15T02:35:14.831Z,99677.47
2023-01-15T02:37:50.855Z,99671.72
2023-01-15T02:40:23.934Z,99670.13
2023-01-15T02:42:58.498Z,99650.03
2023-01-15T02:45:32.279Z,99670.19
2023-01-15T02:48:13.303Z,99670.88
2023-01-15T02:50:47.995Z,99634.41
2023-01-15T02:53:26.441Z,99635.59
2023-01-15T02:56:04.358Z,99612.25
2023-01-15T02:58:43.885Z,99603.00
2023-01-15T03:01:20.140Z,99615.00
2023-01-15T03:03:59.179Z,99599.38
2023-01-15T03:06:39.734Z,99595.78
2023-01-15T03:09:10.229Z,99597.13
2023-01-15T03:11:49.097Z,99585.03
2023-01-15T03:14:28.281Z,99574.28
2023-01-15T03:17:05.798Z,99576.66
2023-01-15T03:19:45.840Z,99566.56
2023-01-15T03:22:27.229Z,99573.53
2023-01-15T03:25:04.329Z,99568.56
2023-01-15T03:27:37.305Z,99588.22
2023-01-15T03:30:13.026Z,99574.72
2023-01-15T03:32:42.145Z,99562.13
2023-01-15T03:35:47.021Z,99577.06
2023-01-15T03:38:29.765Z,99549.94
2023-01-15T03:41:15.234Z,99547.13
2023-01-15T03:44:03.187Z,99535.84
2023-01-15T03:46:56.044Z,99548.09
2023-01-15T03:49:39.922Z,99538.75
2023-01-15T03:52:23.864Z,99543.88
2023-01-15T03:55:11.166Z,99544.22
2023-01-15T03:57:49.512Z,99541.09
2023-01-15T04:00:26.366Z,99518.13
2023-01-15T04:03:04.848Z,99498.78
2023-01-15T04:05:39.003Z,99503.41
2023-01-15T04:08:10.659Z,99503.16
2023-01-15T04:10:39.530Z,99504.44
2023-01-15T04:13:12.477Z,99496.41
2023-01-15T04:15:43.461Z,99502.41
2023-01-15T04:18:14.101Z,99496.34
2023-01-15T04:20:43.775Z,99488.78
2023-01-15T04:23:14.312Z,99491.28
2023-01-15T04:25:43.610Z,99470.97
2023-01-15T04:28:14.045Z,99471.44
2023-01-15T04:30:43.777Z,99458.16
2023-01-15T04:33:14.234Z,99447.94
2023-01-15T04:35:43.160Z,99435.16
2023-01-15T04:38:12.182Z,99439.44
2023-01-15T04:40:58.400Z,99435.75
2023-01-15T04:43:45.159Z,99433.81
2023-01-15T04:46:14.127Z,99435.88
2023-01-15T04:48:44.597Z,99428.81
2023-01-15T04:51:13.726Z,99433.09
2023-01-15T04:53:42.903Z,99430.66
2023-01-15T04:56:11.864Z,99430.31
2023-01-15T04:58:40.934Z,99430.25
2023-01-15T05:01:14.018Z,99429.56
2023-01-15T05:03:45.181Z,99421.16
2023-01-15T05:06:14.578Z,99430.69
2023-01-15T05:08:43.736Z,99425.91
2023-01-15T05:11:13.187Z,99419.13
2023-01-15T05:13:42.359Z,99414.59
2023-01-15T05:16:14.519Z,99408.75
2023-01-15T05:18:46.828Z,99411.53
2023-01-15T05:21:18.503Z,99400.13
2023-01-15T05:23:48.042Z,99384.47
2023-01-15T05:26:17.085Z,99395.91
2023-01-15T05:28:46.576Z,99396.66
2023-01-15T05:31:18.589Z,99410.06
2023-01-15T05:33:50.643Z,99390.59
2023-01-15T05:36:22.992Z,99390.59
2023-01-15T05:38:52.897Z,99390.44
2023-01-15T05:41:41.015Z,99404.94
2023-01-15T05:44:12.789Z,99399.84
2023-01-15T05:46:44.865Z,99399.28
2023-01-15T05:49:18.690Z,99402.44
2023-01-15T05:51:48.154Z,99397.09
2023-01-15T05:54:21.889Z,99400.66
2023-01-15T05:56:50.812Z,99383.88
2023-01-15T05:59:22.172Z,99383.97
2023-01-15T06:01:51.475Z,99387.81
2023-01-15T06:04:22.828Z,99379.06
2023-01-15T06:06:53.737Z,99380.25
2023-01-15T06:09:24.036Z,99373.38
2023-01-15T06:11:54.100Z,99365.28
2023-01-15T06:14:23.242Z,99347.31
2023-01-15T06:16:52.082Z,99358.44
2023-01-15T06:19:22.616Z,99347.19
2023-01-15T06:21:51.395Z,99354.56
2023-01-15T06:24:20.969Z,99356.97
2023-01-15T06:26:49.915Z,99344.06
2023-01-15T06:29:20.571Z,99342.09
2023-01-15T06:31:50.200Z,99339.69
2023-01-15T06:34:19.372Z,99336.00
2023-01-15T06:36:49.523Z,99346.97
2023-01-15T06:39:18.581Z,99351.88
2023-01-15T06:42:19.232Z,99354.09
2023-01-15T06:45:05.639Z,99372.34
2023-01-15T06:47:34.455Z,99361.25
2023-01-15T06:50:03.631Z,99339.50
2023-01-15T06:52:33.816Z,99337.91
2023-01-15T06:55:02.901Z,99334.47
2023-01-15T06:57:31.768Z,99337.91
2023-01-15T07:00:01.018Z,99333.94
2023-01-15T07:02:29.809Z,99346.22
2023-01-15T07:04:58.945Z,99347.91
2023-01-15T07:07:30.436Z,99340.34
2023-01-15T07:10:00.913Z,99337.19
2023-01-15T07:12:30.549Z,99326.75
2023-01-15T07:14:59.620Z,99324.97
2023-01-15T07:17:28.431Z,99327.66
2023-01-15T07:19:57.559Z,99329.69
2023-01-15T07:22:26.367Z,99346.22
2023-01-15T07:24:55.466Z,99335.81
2023-01-15T07:27:25.759Z,99320.19
2023-01-15T07:29:54.847Z,99318.44
2023-01-15T07:32:23.639Z,99315.09
2023-01-15T07:34:52.699Z,99307.19
2023-01-15T07:37:21.473Z,99313.25
2023-01-15T07:39:50.553Z,99309.63
2023-01-15T07:42:37.034Z,99308.44
2023-01-15T07:45:23.685Z,99306.28
2023-01-15T07:48:09.861Z,99298.47
2023-01-15T07:50:38.967Z,99299.56
2023-01-15T07:53:07.736Z,99300.22
2023-01-15T07:55:37.512Z,99294.09
2023-01-15T07:58:06.324Z,99291.38
2023-01-15T08:00:36.790Z,99296.19
2023-01-15T08:03:06.602Z,99290.50
2023-01-15T08:05:35.679Z,99293.88
2023-01-15T08:08:04.525Z,99297.97
2023-01-15T08:10:53.656Z,99299.28
2023-01-15T08:13:39.855Z,99282.75
2023-01-15T08:16:11.382Z,99295.59
2023-01-15T08:18:40.826Z,99280.41
2023-01-15T08:21:16.467Z,99283.31
2023-01-15T08:23:46.672Z,99288.91
2023-01-15T08:26:15.865Z,99284.34
2023-01-15T08:28:44.693Z,99286.19
2023-01-15T08:31:15.169Z,99261.94
2023-01-15T08:33:44.003Z,99271.06
2023-01-15T08:36:13.090Z,99257.66
2023-01-15T08:38:41.855Z,99263.50
2023-01-15T08:41:10.988Z,99273.63
2023-01-15T08:43:39.743Z,99259.22
2023-01-15T08:46:09.753Z,99255.88
2023-01-15T08:48:40.177Z,99265.47
2023-01-15T08:51:12.255Z,99258.59
2023-01-15T08:53:41.711Z,99263.41
2023-01-15T08:56:14.648Z,99267.41
2023-01-15T08:58:44.116Z,99257.28
2023-01-15T09:01:16.144Z,99268.72
2023-01-15T09:03:46.603Z,99268.44
2023-01-15T09:06:15.860Z,99257.84
2023-01-15T09:08:44.701Z,99259.91
2023-01-15T09:11:14.062Z,99254.47
2023-01-15T09:13:44.478Z,99263.25
2023-01-15T09:16:13.870Z,99254.19
2023-01-15T09:18:43.389Z,99246.75
2023-01-15T09:21:13.925Z,99241.53
2023-01-15T09:23:42.709Z,99257.28
2023-01-15T09:26:29.906Z,99245.94
2023-01-15T09:28:59.869Z,99240.81
2023-01-15T09:31:29.435Z,99251.69
2023-01-15T09:33:59.256Z,99245.16
2023-01-15T09:36:31.892Z,99238.94
2023-01-15T09:39:02.881Z,99245.84
2023-01-15T09:42:08.242Z,99241.00
2023-01-15T09:45:15.008Z,99242.88
2023-01-15T09:48:02.321Z,99235.16
2023-01-15T09:50:48.524Z,99244.06
2023-01-15T09:53:43.733Z,99227.50
2023-01-15T09:56:22.264Z,99226.47
2023-01-15T09:58:53.590Z,99223.50
2023-01-15T10:01:30.179Z,99218.97
2023-01-15T10:04:07.386Z,99218.00
2023-01-15T10:06:45.762Z,99215.88
2023-01-15T10:09:23.425Z,99210.97
2023-01-15T10:12:19.128Z,99210.56
2023-01-15T10:15:01.503Z,99205.91
2023-01-15T10:17:41.581Z,99199.13
2023-01-15T10:20:25.684Z,99197.53
2023-01-15T10:23:20.269Z,99207.97
2023-01-15T10:26:00.386Z,99200.78
2023-01-15T10:28:32.362Z,99192.06
2023-01-15T10:31:13.081Z,99186.78
2023-01-15T10:34:04.898Z,99191.34
2023-01-15T10:36:38.429Z,99195.25
2023-01-15T10:39:21.489Z,99183.81
2023-01-15T10:42:08.266Z,99182.56
2023-01-15T10:44:51.014Z,99177.91
2023-01-15T10:47:27.555Z,99172.41
2023-01-15T10:49:59.536Z,99162.81
2023-01-15T10:52:35.146Z,99171.69
2023-01-15T10:55:18.265Z,99161.38
2023-01-15T10:58:09.760Z,99152.72
2023-01-15T11:00:41.059Z,99154.72
2023-01-15T11:03:21.347Z,99149.91
2023-01-15T11:05:50.695Z,99149.63
2023-01-15T11:09:06.354Z,99151.38
2023-01-15T11:11:44.897Z,99148.69
2023-01-15T11:14:32.954Z,99150.25
2023-01-15T11:17:19.628Z,99147.22
2023-01-15T11:19:53.984Z,99147.31
2023-01-15T11:22:23.151Z,99136.97
2023-01-15T11:24:56.367Z,99139.78
2023-01-15T11:27:29.595Z,99145.72
2023-01-15T11:30:02.625Z,99141.81
2023-01-15T11:32:35.306Z,99144.63
2023-01-15T11:35:18.161Z,99129.59
2023-01-15T11:37:46.987Z,99143.56
2023-01-15T11:40:20.190Z,99141.81
2023-01-15T11:43:08.320Z,99134.94
2023-01-15T11:46:06.930Z,99123.75
2023-01-15T11:49:01.916Z,99127.03
2023-01-15T11:51:42.991Z,99128.06
2023-01-15T11:54:16.402Z,99125.00
2023-01-15T11:56:48.699Z,99115.31
2023-01-15T11:59:20.974Z,99114.84
2023-01-15T12:02:00.033Z,99114.19
2023-01-15T12:04:38.757Z,99110.38
2023-01-15T12:07:14.371Z,99104.41
2023-01-15T12:10:14.163Z,99109.00
2023-01-15T12:13:07.833Z,99103.88
2023-01-15T12:15:51.676Z,99108.81
2023-01-15T12:18:52.061Z,99103.78
2023-01-15T12:21:53.875Z,99104.75
2023-01-15T12:25:12.149Z,99101.91
2023-01-15T12:27:57.327Z,99107.88
2023-01-15T12:30:39.456Z,99095.53
2023-01-15T12:33:23.399Z,99104.63
2023-01-15T12:36:03.728Z,99110.66
2023-01-15T12:38:57.066Z,99109.16
2023-01-15T12:41:46.606Z,99100.97
2023-01-15T12:44:40.631Z,99106.94
2023-01-15T12:47:19.749Z,99108.28
2023-01-15T12:49:57.542Z,99110.59
2023-01-15T12:52:36.415Z,99103.16
2023-01-15T12:55:15.589Z,99099.63
2023-01-15T12:57:50.884Z,99108.75
2023-01-15T13:00:26.666Z,99101.66
2023-01-15T13:03:16.012Z,99109.78
2023-01-15T13:05:50.199Z,99117.31
2023-01-15T13:08:28.613Z,99101.41
2023-01-15T13:10:58.028Z,99101.53
2023-01-15T13:13:31.899Z,99099.69
2023-01-15T13:16:17.445Z,99108.69
2023-01-15T13:19:02.895Z,99102.91
2023-01-15T13:21:36.895Z,99101.72
2023-01-15T13:24:56.895Z,99094.00
2023-01-15T13:27:49.733Z,99097.84
2023-01-15T13:30:41.655Z,99109.84
2023-01-15T13:33:28.337Z,99101.09
2023-01-15T13:36:07.771Z,99112.03
2023-01-15T13:38:44.247Z,99112.38
2023-01-15T13:41:37.195Z,99114.41
2023-01-15T13:44:06.669Z,99111.28
2023-01-15T13:46:35.885Z,99105.19
2023-01-15T13:49:05.596Z,99105.41
2023-01-15T13:51:39.159Z,99106.31
2023-01-15T13:54:17.776Z,99108.69
2023-01-15T13:56:48.372Z,99109.53
2023-01-15T13:59:45.974Z,99104.19
2023-01-15T14:02:30.496Z,99114.41
2023-01-15T14:04:59.950Z,99124.75
2023-01-15T14:07:36.980Z,99116.09
2023-01-15T14:10:26.756Z,99120.13
2023-01-15T14:13:26.603Z,99129.25
2023-01-15T14:16:13.996Z,99137.28
2023-01-15T14:19:09.480Z,99137.94
2023-01-15T14:21:56.812Z,99134.50
2023-01-15T14:24:57.555Z,99134.31
2023-01-15T14:27:54.564Z,99141.03
2023-01-15T14:30:59.951Z,99158.97
2023-01-15T14:33:46.052Z,99158.81
2023-01-15T14:36:21.992Z,99163.50
2023-01-15T14:38:57.036Z,99150.00
2023-01-15T14:41:31.238Z,99147.03
2023-01-15T14:44:03.156Z,99168.53
2023-01-15T14:46:38.755Z,99166.88
2023-01-15T14:49:29.290Z,99146.16
2023-01-15T14:52:00.620Z,99149.34
2023-01-15T14:54:31.636Z,99145.88
2023-01-15T14:57:03.385Z,99153.91
2023-01-15T14:59:48.357Z,99139.50
2023-01-15T15:02:25.524Z,99138.53
2023-01-15T15:04:58.163Z,99141.81
2023-01-15T15:07:39.380Z,99140.72
2023-01-15T15:10:22.458Z,99128.56
2023-01-15T15:13:04.247Z,99141.31
2023-01-15T15:15:48.042Z,99137.78
2023-01-15T15:18:32.426Z,99151.06
2023-01-15T15:21:09.662Z,99142.31
2023-01-15T15:23:47.096Z,99145.25
2023-01-15T15:26:27.014Z,99153.84
2023-01-15T15:29:01.842Z,99144.91
2023-01-15T15:31:37.490Z,99143.38
2023-01-15T15:34:17.462Z,99132.31
2023-01-15T15:36:48.089Z,99137.66
2023-01-15T15:39:24.273Z,99125.78
2023-01-15T15:42:16.311Z,99137.94
2023-01-15T15:45:11.637Z,99132.97
2023-01-15T15:48:00.686Z,99132.28
2023-01-15T15:50:34.621Z,99129.91
2023-01-15T15:53:04.636Z,99132.72
2023-01-15T15:55:40.640Z,99120.75
2023-01-15T15:58:23.035Z,99133.81
2023-01-15T16:00:53.697Z,99129.78
2023-01-15T16:03:25.916Z,99135.09
2023-01-15T16:06:01.935Z,99144.81
2023-01-15T16:08:32.800Z,99144.75
2023-01-15T16:11:06.087Z,99150.25
2023-01-15T16:13:42.420Z,99149.06
2023-01-15T16:16:14.011Z,99156.31
2023-01-15T16:18:47.179Z,99153.84
2023-01-15T16:21:25.447Z,99165.81
2023-01-15T16:23:58.749Z,99157.22
2023-01-15T16:26:36.206Z,99157.19
2023-01-15T16:29:19.612Z,99155.59
2023-01-15T16:31:49.277Z,99161.09
2023-01-15T16:34:22.936Z,99177.00
2023-01-15T16:36:53.824Z,99177.00
2023-01-15T16:39:28.777Z,99185.25
2023-01-15T16:42:02.405Z,99183.28
2023-01-15T16:44:43.993Z,99179.66
2023-01-15T16:47:25.080Z,99186.47
2023-01-15T16:49:54.492Z,99186.47
2023-01-15T16:52:54.578Z,99193.44
2023-01-15T16:55:45.499Z,99199.09
2023-01-15T16:58:22.189Z,99198.47
2023-01-15T17:00:55.853Z,99203.50
2023-01-15T17:03:28.476Z,99203.81
2023-01-15T17:06:01.675Z,99198.81
2023-01-15T17:08:39.611Z,99199.00
2023-01-15T17:11:22.237Z,99200.59
2023-01-15T17:13:52.293Z,99210.41
2023-01-15T17:16:23.491Z,99212.91
2023-01-15T17:18:53.124Z,99214.13
2023-01-15T17:21:28.569Z,99222.72
2023-01-15T17:24:00.715Z,99225.13
2023-01-15T17:26:29.647Z,99226.78
2023-01-15T17:28:58.743Z,99229.81
2023-01-15T17:31:30.868Z,99238.69
2023-01-15T17:34:02.654Z,99228.88
2023-01-15T17:36:34.603Z,99237.34
2023-01-15T17:39:05.666Z,99247.03
2023-01-15T17:41:34.436Z,99242.97
2023-01-15T17:44:04.147Z,99251.53
2023-01-15T17:46:32.967Z,99257.88
2023-01-15T17:49:02.047Z,99268.22
2023-01-15T17:51:30.852Z,99277.84
2023-01-15T17:53:59.994Z,99281.38
2023-01-15T17:56:47.317Z,99286.94
2023-01-15T17:59:34.155Z,99305.94
2023-01-15T18:02:18.497Z,99289.00
2023-01-15T18:05:09.927Z,99295.72
2023-01-15T18:07:42.777Z,99304.44
2023-01-15T18:10:18.811Z,99307.19
2023-01-15T18:12:49.438Z,99302.06
2023-01-15T18:15:19.663Z,99302.63
2023-01-15T18:17:48.786Z,99306.31
2023-01-15T18:20:18.151Z,99313.63
2023-01-15T18:22:47.052Z,99317.75
2023-01-15T18:25:16.198Z,99323.31
2023-01-15T18:27:45.257Z,99322.88
2023-01-15T18:30:18.465Z,99320.66
2023-01-15T18:32:47.562Z,99322.34
2023-01-15T18:35:18.343Z,99319.34
2023-01-15T18:37:47.403Z,99319.81
2023-01-15T18:40:16.824Z,99331.78
2023-01-15T18:43:02.941Z,99325.78
2023-01-15T18:45:50.907Z,99331.75
2023-01-15T18:48:19.719Z,99326.25
2023-01-15T18:50:49.252Z,99331.28
2023-01-15T18:53:18.049Z,99333.25
2023-01-15T18:55:47.185Z,99342.91
2023-01-15T18:58:16.067Z,99348.97
2023-01-15T19:00:46.610Z,99349.91
2023-01-15T19:03:15.482Z,99347.47
2023-01-15T19:05:44.708Z,99353.09
2023-01-15T19:08:13.585Z,99342.66
2023-01-15T19:10:42.807Z,99352.31
2023-01-15T19:13:13.571Z,99346.09
2023-01-15T19:16:01.076Z,99352.16
2023-01-15T19:18:44.474Z,99346.69
2023-01-15T19:21:13.992Z,99346.75
2023-01-15T19:23:43.012Z,99342.69
2023-01-15T19:26:12.427Z,99347.13
2023-01-15T19:28:41.547Z,99352.06
2023-01-15T19:31:29.341Z,99347.16
2023-01-15T19:34:31.203Z,99346.88
2023-01-15T19:36:50.227Z,99363.63
2023-01-15T19:39:19.207Z,99358.41
2023-01-15T19:42:05.814Z,99362.03
2023-01-15T19:44:52.135Z,99369.75
2023-01-15T19:47:46.970Z,99370.97
2023-01-15T19:50:21.420Z,99370.31
2023-01-15T19:52:52.770Z,99363.63
2023-01-15T19:55:24.125Z,99368.84
2023-01-15T19:58:00.086Z,99369.59
2023-01-15T20:00:30.592Z,99367.44
2023-01-15T20:02:59.997Z,99388.38
2023-01-15T20:05:32.658Z,99378.13
2023-01-15T20:08:01.877Z,99385.13
2023-01-15T20:10:31.907Z,99379.91
2023-01-15T20:13:19.316Z,99381.56
2023-01-15T20:15:48.355Z,99368.53
2023-01-15T20:18:18.786Z,99368.53
2023-01-15T20:20:49.440Z,99358.22
2023-01-15T20:23:18.553Z,99363.44
2023-01-15T20:25:53.420Z,99373.94
2023-01-15T20:28:22.589Z,99374.72
2023-01-15T20:30:53.561Z,99373.84
2023-01-15T20:33:23.057Z,99375.53
2023-01-15T20:35:54.573Z,99386.88
2023-01-15T20:38:24.433Z,99380.66
2023-01-15T20:40:53.629Z,99382.44
2023-01-15T20:43:40.167Z,99373.66
2023-01-15T20:46:12.248Z,99375.81
2023-01-15T20:48:58.763Z,99375.19
2023-01-15T20:51:29.030Z,99392.28
2023-01-15T20:53:59.121Z,99368.09
2023-01-15T20:56:27.985Z,99378.78
2023-01-15T20:58:58.386Z,99387.25
2023-01-15T21:01:28.696Z,99385.84
2023-01-15T21:03:57.916Z,99391.47
2023-01-15T21:06:28.265Z,99394.34
2023-01-15T21:08:57.502Z,99395.72
2023-01-15T21:11:26.836Z,99393.38
2023-01-15T21:13:55.963Z,99393.47
2023-01-15T21:16:24.804Z,99402.06
2023-01-15T21:18:54.067Z,99399.06
2023-01-15T21:21:22.930Z,99388.66
2023-01-15T21:23:53.412Z,99391.44
2023-01-15T21:26:24.400Z,99402.81
2023-01-15T21:28:55.598Z,99388.66
2023-01-15T21:31:24.749Z,99381.56
2023-01-15T21:33:55.288Z,99386.03
2023-01-15T21:36:24.809Z,99384.34
2023-01-15T21:38:57.780Z,99386.59
2023-01-15T21:41:41.849Z,99395.16
2023-01-15T21:44:34.851Z,99402.84
2023-01-15T21:47:06.812Z,99392.16
2023-01-15T21:49:36.558Z,99403.06
2023-01-15T21:52:10.290Z,99403.16
2023-01-15T21:54:41.429Z,99397.50
2023-01-15T21:57:11.764Z,99399.81
2023-01-15T21:59:41.270Z,99399.16
2023-01-15T22:02:16.929Z,99392.91
2023-01-15T22:04:47.105Z,99402.41
2023-01-15T22:07:18.095Z,99406.50
2023-01-15T22:09:48.624Z,99399.06
2023-01-15T22:12:17.696Z,99392.09
2023-01-15T22:14:47.216Z,99397.03
2023-01-15T22:17:16.152Z,99405.38
2023-01-15T22:19:45.211Z,99395.50
2023-01-15T22:22:14.025Z,99398.28
2023-01-15T22:24:43.573Z,99395.91
2023-01-15T22:27:17.145Z,99386.59
2023-01-15T22:29:46.233Z,99396.38
2023-01-15T22:32:16.313Z,99387.88
2023-01-15T22:34:45.389Z,99382.31
2023-01-15T22:37:15.305Z,99381.41
2023-01-15T22:39:44.331Z,99388.19
2023-01-15T22:42:27.772Z,99393.47
2023-01-15T22:45:00.150Z,99391.16
2023-01-15T22:47:30.749Z,99392.72
2023-01-15T22:49:59.864Z,99391.91
2023-01-15T22:52:28.702Z,99387.69
2023-01-15T22:54:57.949Z,99393.28
2023-01-15T22:57:31.013Z,99391.78
2023-01-15T23:00:00.230Z,99384.13
2023-01-15T23:02:46.652Z,99396.34
2023-01-15T23:05:15.904Z,99392.50
2023-01-15T23:07:44.692Z,99388.97
2023-01-15T23:10:14.915Z,99389.81
2023-01-15T23:12:45.379Z,99390.38
2023-01-15T23:15:16.333Z,99385.44
2023-01-15T23:17:45.185Z,99388.13
2023-01-15T23:20:15.133Z,99391.38
2023-01-15T23:22:44.007Z,99393.34
2023-01-15T23:25:13.104Z,99391.59
2023-01-15T23:27:41.961Z,99385.25
2023-01-15T23:30:14.033Z,99384.69
2023-01-15T23:32:43.000Z,99390.47
2023-01-15T23:35:12.092Z,99375.41
2023-01-15T23:37:40.907Z,99383.66
2023-01-15T23:40:11.767Z,99380.59
2023-01-15T23:42:58.401Z,99376.13
2023-01-15T23:45:51.863Z,99378.34
2023-01-15T23:48:20.818Z,99377.19
2023-01-15T23:50:49.917Z,99377.19
2023-01-15T23:53:18.699Z,99381.88
2023-01-15T23:55:47.848Z,99384.34
2023-01-15T23:58:16.884Z,99377.59
